Cat Lake, Canada
Current Conditions -  °F | °C
As of 8:00 PM on Sunday 21 Dec 2014 (Local Time) from CYPL Reporting Station
Light Snow Light Snow  
Wind Chill: 20°   Ceiling: 500
Heat Index: 28°   Visibility: 2.5mi
Dew Point: 27°   Wind: 9mph
Humidity: 93%   Direction: 160°SSE
Pressure: 29.74"   Gusts: NA
Location:  51.72°N, 91.8°W
Report Text: CYPL 220200Z 16008KT 2 1/2SM -SN BKN005 OVC025 M02/M03 A2974 RMK SN2SF4SC2 LAST OBS/NEXT 221100Z SLP094
Loading
Personal Weather Stations






























Interactive Weather Map New forecast layout! Learn more

10-Day Weather Forecast

Advertisements
Track Severe Weather on mobile